sensor_id;sensor_type;location;lat;lon;timestamp;pressure;altitude;pressure_sealevel;temperature;humidity
72061;BME280;59925;52.136;5.420;2023-03-01T00:01:37;103415.22;;;-1.52;70.81
72061;BME280;59925;52.136;5.420;2023-03-01T00:04:03;103410.06;;;-1.54;70.93
72061;BME280;59925;52.136;5.420;2023-03-01T00:06:30;103412.94;;;-1.57;70.95
72061;BME280;59925;52.136;5.420;2023-03-01T00:08:57;103409.72;;;-1.61;71.27
72061;BME280;59925;52.136;5.420;2023-03-01T00:11:30;103423.13;;;-1.64;71.18
72061;BME280;59925;52.136;5.420;2023-03-01T00:14:00;103420.16;;;-1.71;71.44
72061;BME280;59925;52.136;5.420;2023-03-01T00:16:32;103409.19;;;-1.76;72.07
72061;BME280;59925;52.136;5.420;2023-03-01T00:19:00;103417.31;;;-1.79;72.57
72061;BME280;59925;52.136;5.420;2023-03-01T00:21:27;103415.78;;;-1.81;72.74
72061;BME280;59925;52.136;5.420;2023-03-01T00:23:54;103416.59;;;-1.81;73.24
72061;BME280;59925;52.136;5.420;2023-03-01T00:26:22;103417.47;;;-1.80;72.65
72061;BME280;59925;52.136;5.420;2023-03-01T00:28:49;103405.97;;;-1.79;73.31
72061;BME280;59925;52.136;5.420;2023-03-01T00:31:18;103409.44;;;-1.79;72.51
72061;BME280;59925;52.136;5.420;2023-03-01T00:33:45;103403.59;;;-1.82;72.85
72061;BME280;59925;52.136;5.420;2023-03-01T00:36:13;103397.75;;;-1.86;73.34
72061;BME280;59925;52.136;5.420;2023-03-01T00:38:42;103403.34;;;-1.91;73.49
72061;BME280;59925;52.136;5.420;2023-03-01T00:41:15;103400.03;;;-1.93;73.39
72061;BME280;59925;52.136;5.420;2023-03-01T00:43:42;103404.56;;;-1.95;74.26
72061;BME280;59925;52.136;5.420;2023-03-01T00:46:15;103401.09;;;-1.95;74.47
72061;BME280;59925;52.136;5.420;2023-03-01T00:48:41;103408.25;;;-1.97;74.33
72061;BME280;59925;52.136;5.420;2023-03-01T00:51:13;103402.31;;;-1.99;74.50
72061;BME280;59925;52.136;5.420;2023-03-01T00:53:40;103399.78;;;-2.01;74.31
72061;BME280;59925;52.136;5.420;2023-03-01T00:56:09;103400.75;;;-2.02;74.27
72061;BME280;59925;52.136;5.420;2023-03-01T00:58:36;103398.97;;;-2.02;74.28
72061;BME280;59925;52.136;5.420;2023-03-01T01:01:14;103392.84;;;-2.02;73.91
72061;BME280;59925;52.136;5.420;2023-03-01T01:06:21;103396.09;;;-2.10;74.85
72061;BME280;59925;52.136;5.420;2023-03-01T01:08:48;103387.53;;;-2.12;74.39
72061;BME280;59925;52.136;5.420;2023-03-01T01:11:15;103384.16;;;-2.14;74.60
72061;BME280;59925;52.136;5.420;2023-03-01T01:13:44;103375.56;;;-2.16;74.60
72061;BME280;59925;52.136;5.420;2023-03-01T01:16:12;103375.56;;;-2.16;74.72
72061;BME280;59925;52.136;5.420;2023-03-01T01:18:38;103369.59;;;-2.18;74.92
72061;BME280;59925;52.136;5.420;2023-03-01T01:21:08;103373.03;;;-2.18;75.15
72061;BME280;59925;52.136;5.420;2023-03-01T01:23:34;103367.09;;;-2.20;75.52
72061;BME280;59925;52.136;5.420;2023-03-01T01:26:10;103365.66;;;-2.24;75.49
72061;BME280;59925;52.136;5.420;2023-03-01T01:28:38;103366.97;;;-2.29;75.67
72061;BME280;59925;52.136;5.420;2023-03-01T01:31:05;103362.69;;;-2.31;75.71
72061;BME280;59925;52.136;5.420;2023-03-01T01:33:32;103360.06;;;-2.31;75.75
72061;BME280;59925;52.136;5.420;2023-03-01T01:35:59;103356.94;;;-2.36;75.75
72061;BME280;59925;52.136;5.420;2023-03-01T01:38:26;103350.28;;;-2.40;76.00
72061;BME280;59925;52.136;5.420;2023-03-01T01:40:53;103357.31;;;-2.40;76.01
72061;BME280;59925;52.136;5.420;2023-03-01T01:43:28;103358.16;;;-2.40;76.53
72061;BME280;59925;52.136;5.420;2023-03-01T01:48:49;103357.53;;;-2.43;76.41
72061;BME280;59925;52.136;5.420;2023-03-01T01:51:19;103352.41;;;-2.45;76.22
72061;BME280;59925;52.136;5.420;2023-03-01T01:53:50;103352.41;;;-2.45;76.61
72061;BME280;59925;52.136;5.420;2023-03-01T01:56:23;103351.47;;;-2.44;76.11
72061;BME280;59925;52.136;5.420;2023-03-01T01:58:50;103352.78;;;-2.50;76.20
72061;BME280;59925;52.136;5.420;2023-03-01T02:01:17;103350.25;;;-2.51;76.62
72061;BME280;59925;52.136;5.420;2023-03-01T02:03:46;103345.97;;;-2.52;76.81
72061;BME280;59925;52.136;5.420;2023-03-01T02:08:47;103340.00;;;-2.54;76.59
72061;BME280;59925;52.136;5.420;2023-03-01T02:11:17;103339.06;;;-2.53;76.53
72061;BME280;59925;52.136;5.420;2023-03-01T02:13:46;103339.38;;;-2.58;76.18
72061;BME280;59925;52.136;5.420;2023-03-01T02:16:14;103339.66;;;-2.61;77.23
72061;BME280;59925;52.136;5.420;2023-03-01T02:18:42;103345.72;;;-2.60;77.19
72061;BME280;59925;52.136;5.420;2023-03-01T02:23:47;103337.03;;;-2.61;77.05
72061;BME280;59925;52.136;5.420;2023-03-01T02:28:50;103333.69;;;-2.63;77.26
72061;BME280;59925;52.136;5.420;2023-03-01T02:31:19;103336.66;;;-2.68;77.48
72061;BME280;59925;52.136;5.420;2023-03-01T02:34:06;103327.34;;;-2.72;77.50
72061;BME280;59925;52.136;5.420;2023-03-01T02:36:39;103329.03;;;-2.71;77.67
72061;BME280;59925;52.136;5.420;2023-03-01T02:39:08;103326.75;;;-2.75;77.74
72061;BME280;59925;52.136;5.420;2023-03-01T02:41:44;103321.00;;;-2.81;77.77
72061;BME280;59925;52.136;5.420;2023-03-01T02:44:13;103314.22;;;-2.83;78.22
72061;BME280;59925;52.136;5.420;2023-03-01T02:46:45;103322.09;;;-2.83;78.00
72061;BME280;59925;52.136;5.420;2023-03-01T02:49:39;103318.63;;;-2.84;78.05
72061;BME280;59925;52.136;5.420;2023-03-01T02:55:03;103311.09;;;-2.88;77.61
72061;BME280;59925;52.136;5.420;2023-03-01T02:57:32;103306.94;;;-2.91;77.71
72061;BME280;59925;52.136;5.420;2023-03-01T03:00:04;103308.97;;;-2.95;78.25
72061;BME280;59925;52.136;5.420;2023-03-01T03:02:35;103308.13;;;-2.95;78.19
72061;BME280;59925;52.136;5.420;2023-03-01T03:05:10;103307.28;;;-2.96;78.90
72061;BME280;59925;52.136;5.420;2023-03-01T03:07:39;103302.03;;;-2.96;78.45
72061;BME280;59925;52.136;5.420;2023-03-01T03:10:11;103295.94;;;-2.96;78.08
72061;BME280;59925;52.136;5.420;2023-03-01T03:12:38;103296.06;;;-2.98;78.03
72061;BME280;59925;52.136;5.420;2023-03-01T03:15:06;103303.22;;;-3.00;78.09
72061;BME280;59925;52.136;5.420;2023-03-01T03:17:37;103299.66;;;-2.99;78.75
72061;BME280;59925;52.136;5.420;2023-03-01T03:20:05;103300.59;;;-3.00;78.19
72061;BME280;59925;52.136;5.420;2023-03-01T03:22:32;103290.09;;;-3.00;77.95
72061;BME280;59925;52.136;5.420;2023-03-01T03:25:00;103286.28;;;-2.96;78.40
72061;BME280;59925;52.136;5.420;2023-03-01T03:27:27;103285.34;;;-2.95;78.28
72061;BME280;59925;52.136;5.420;2023-03-01T03:29:54;103287.97;;;-2.95;78.77
72061;BME280;59925;52.136;5.420;2023-03-01T03:32:21;103287.00;;;-2.94;79.13
72061;BME280;59925;52.136;5.420;2023-03-01T03:34:47;103289.03;;;-2.97;78.74
72061;BME280;59925;52.136;5.420;2023-03-01T03:37:15;103303.34;;;-3.01;79.27
72061;BME280;59925;52.136;5.420;2023-03-01T03:40:00;103295.56;;;-3.03;78.94
72061;BME280;59925;52.136;5.420;2023-03-01T03:42:27;103300.97;;;-3.04;79.03
72061;BME280;59925;52.136;5.420;2023-03-01T03:44:53;103298.56;;;-3.08;78.50
72061;BME280;59925;52.136;5.420;2023-03-01T03:47:20;103303.09;;;-3.10;78.37
72061;BME280;59925;52.136;5.420;2023-03-01T03:49:46;103296.50;;;-3.15;78.66
72061;BME280;59925;52.136;5.420;2023-03-01T03:52:13;103281.13;;;-3.20;79.20
72061;BME280;59925;52.136;5.420;2023-03-01T03:54:40;103272.53;;;-3.22;79.43
72061;BME280;59925;52.136;5.420;2023-03-01T03:57:07;103282.44;;;-3.26;79.29
72061;BME280;59925;52.136;5.420;2023-03-01T03:59:34;103282.78;;;-3.30;79.50
72061;BME280;59925;52.136;5.420;2023-03-01T04:02:00;103271.69;;;-3.34;79.84
72061;BME280;59925;52.136;5.420;2023-03-01T04:04:27;103284.81;;;-3.34;79.85
72061;BME280;59925;52.136;5.420;2023-03-01T04:06:54;103287.66;;;-3.37;80.06
72061;BME280;59925;52.136;5.420;2023-03-01T04:09:20;103281.69;;;-3.39;80.09
72061;BME280;59925;52.136;5.420;2023-03-01T04:11:47;103284.22;;;-3.37;79.98
72061;BME280;59925;52.136;5.420;2023-03-01T04:14:13;103289.69;;;-3.41;79.92
72061;BME280;59925;52.136;5.420;2023-03-01T04:16:40;103290.50;;;-3.40;79.94
72061;BME280;59925;52.136;5.420;2023-03-01T04:19:07;103287.28;;;-3.44;79.41
72061;BME280;59925;52.136;5.420;2023-03-01T04:21:35;103286.47;;;-3.44;79.28
72061;BME280;59925;52.136;5.420;2023-03-01T04:24:02;103286.78;;;-3.49;79.85
72061;BME280;59925;52.136;5.420;2023-03-01T04:26:33;103298.56;;;-3.55;79.77
72061;BME280;59925;52.136;5.420;2023-03-01T04:29:00;103293.69;;;-3.59;80.13
72061;BME280;59925;52.136;5.420;2023-03-01T04:31:27;103295.47;;;-3.60;79.88
72061;BME280;59925;52.136;5.420;2023-03-01T04:33:55;103296.88;;;-3.67;80.09
72061;BME280;59925;52.136;5.420;2023-03-01T04:36:25;103295.31;;;-3.70;79.69
72061;BME280;59925;52.136;5.420;2023-03-01T04:38:52;103286.72;;;-3.72;80.05
72061;BME280;59925;52.136;5.420;2023-03-01T04:41:21;103285.06;;;-3.73;80.10
72061;BME280;59925;52.136;5.420;2023-03-01T04:43:48;103286.00;;;-3.74;80.03
72061;BME280;59925;52.136;5.420;2023-03-01T04:46:18;103282.56;;;-3.74;80.32
72061;BME280;59925;52.136;5.420;2023-03-01T04:48:48;103276.47;;;-3.75;80.18
72061;BME280;59925;52.136;5.420;2023-03-01T04:51:15;103278.59;;;-3.80;80.02
72061;BME280;59925;52.136;5.420;2023-03-01T04:53:43;103277.88;;;-3.82;79.95
72061;BME280;59925;52.136;5.420;2023-03-01T04:56:09;103270.34;;;-3.87;80.10
72061;BME280;59925;52.136;5.420;2023-03-01T04:58:36;103272.34;;;-3.90;80.49
72061;BME280;59925;52.136;5.420;2023-03-01T05:01:15;103260.44;;;-3.94;80.50
72061;BME280;59925;52.136;5.420;2023-03-01T05:03:48;103256.88;;;-3.93;80.33
72061;BME280;59925;52.136;5.420;2023-03-01T05:06:16;103255.06;;;-3.93;80.38
72061;BME280;59925;52.136;5.420;2023-03-01T05:08:43;103250.78;;;-3.94;80.38
72061;BME280;59925;52.136;5.420;2023-03-01T05:11:11;103241.38;;;-3.96;80.47
72061;BME280;59925;52.136;5.420;2023-03-01T05:13:39;103237.78;;;-3.95;80.62
72061;BME280;59925;52.136;5.420;2023-03-01T05:16:07;103245.53;;;-3.94;80.67
72061;BME280;59925;52.136;5.420;2023-03-01T05:18:39;103243.84;;;-3.95;80.77
72061;BME280;59925;52.136;5.420;2023-03-01T05:21:12;103233.50;;;-3.96;80.67
72061;BME280;59925;52.136;5.420;2023-03-01T05:23:39;103236.47;;;-4.01;80.97
72061;BME280;59925;52.136;5.420;2023-03-01T05:26:07;103233.00;;;-4.02;80.80
72061;BME280;59925;52.136;5.420;2023-03-01T05:28:53;103227.88;;;-4.03;80.86
72061;BME280;59925;52.136;5.420;2023-03-01T05:31:25;103218.34;;;-4.04;81.21
72061;BME280;59925;52.136;5.420;2023-03-01T05:33:52;103214.03;;;-4.05;80.75
72061;BME280;59925;52.136;5.420;2023-03-01T05:36:19;103217.63;;;-4.06;80.74
72061;BME280;59925;52.136;5.420;2023-03-01T05:38:45;103209.88;;;-4.08;80.80
72061;BME280;59925;52.136;5.420;2023-03-01T05:41:15;103210.81;;;-4.09;80.97
72061;BME280;59925;52.136;5.420;2023-03-01T05:43:43;103203.91;;;-4.10;80.84
72061;BME280;59925;52.136;5.420;2023-03-01T05:46:11;103215.22;;;-4.09;80.67
72061;BME280;59925;52.136;5.420;2023-03-01T05:48:39;103200.47;;;-4.10;81.02
72061;BME280;59925;52.136;5.420;2023-03-01T05:51:06;103204.13;;;-4.13;80.57
72061;BME280;59925;52.136;5.420;2023-03-01T05:53:33;103199.09;;;-4.16;80.44
72061;BME280;59925;52.136;5.420;2023-03-01T05:55:59;103204.47;;;-4.18;80.99
72061;BME280;59925;52.136;5.420;2023-03-01T05:58:28;103196.63;;;-4.18;80.80
72061;BME280;59925;52.136;5.420;2023-03-01T06:00:55;103199.97;;;-4.16;80.94
72061;BME280;59925;52.136;5.420;2023-03-01T06:03:23;103195.78;;;-4.18;81.10
72061;BME280;59925;52.136;5.420;2023-03-01T06:05:49;103190.44;;;-4.17;81.14
72061;BME280;59925;52.136;5.420;2023-03-01T06:08:29;103193.16;;;-4.18;80.69
72061;BME280;59925;52.136;5.420;2023-03-01T06:10:57;103198.16;;;-4.15;80.54
72061;BME280;59925;52.136;5.420;2023-03-01T06:13:24;103192.09;;;-4.16;79.96
72061;BME280;59925;52.136;5.420;2023-03-01T06:15:51;103196.50;;;-4.16;80.39
72061;BME280;59925;52.136;5.420;2023-03-01T06:18:18;103202.59;;;-4.16;80.21
72061;BME280;59925;52.136;5.420;2023-03-01T06:20:44;103204.34;;;-4.16;80.32
72061;BME280;59925;52.136;5.420;2023-03-01T06:23:11;103203.53;;;-4.17;80.42
72061;BME280;59925;52.136;5.420;2023-03-01T06:25:37;103202.59;;;-4.16;80.01
72061;BME280;59925;52.136;5.420;2023-03-01T06:28:04;103203.41;;;-4.15;80.02
72061;BME280;59925;52.136;5.420;2023-03-01T06:30:30;103200.78;;;-4.15;80.23
72061;BME280;59925;52.136;5.420;2023-03-01T06:32:57;103200.91;;;-4.17;80.58
72061;BME280;59925;52.136;5.420;2023-03-01T06:35:27;103206.03;;;-4.15;80.70
72061;BME280;59925;52.136;5.420;2023-03-01T06:37:56;103201.72;;;-4.16;80.51
72061;BME280;59925;52.136;5.420;2023-03-01T06:40:23;103201.72;;;-4.16;80.66
72061;BME280;59925;52.136;5.420;2023-03-01T06:42:50;103204.34;;;-4.16;80.81
72061;BME280;59925;52.136;5.420;2023-03-01T06:45:18;103209.50;;;-4.14;80.52
72061;BME280;59925;52.136;5.420;2023-03-01T06:47:46;103206.03;;;-4.15;80.76
72061;BME280;59925;52.136;5.420;2023-03-01T06:50:13;103202.59;;;-4.16;80.66
72061;BME280;59925;52.136;5.420;2023-03-01T06:52:41;103206.88;;;-4.14;80.99
72061;BME280;59925;52.136;5.420;2023-03-01T06:55:07;103208.75;;;-4.17;81.00
72061;BME280;59925;52.136;5.420;2023-03-01T06:57:34;103205.19;;;-4.16;81.37
72061;BME280;59925;52.136;5.420;2023-03-01T07:00:01;103206.97;;;-4.16;81.64
72061;BME280;59925;52.136;5.420;2023-03-01T07:02:27;103202.38;;;-4.12;81.62
72061;BME280;59925;52.136;5.420;2023-03-01T07:04:54;103208.31;;;-4.10;81.97
72061;BME280;59925;52.136;5.420;2023-03-01T07:07:21;103201.06;;;-4.07;82.06
72061;BME280;59925;52.136;5.420;2023-03-01T07:09:48;103205.97;;;-4.02;82.12
72061;BME280;59925;52.136;5.420;2023-03-01T07:12:15;103198.72;;;-3.98;82.03
72061;BME280;59925;52.136;5.420;2023-03-01T07:14:43;103203.72;;;-3.95;81.54
72061;BME280;59925;52.136;5.420;2023-03-01T07:17:10;103204.09;;;-3.89;81.78
72061;BME280;59925;52.136;5.420;2023-03-01T07:19:36;103206.25;;;-3.82;81.26
72061;BME280;59925;52.136;5.420;2023-03-01T07:22:03;103207.56;;;-3.77;81.20
72061;BME280;59925;52.136;5.420;2023-03-01T07:24:30;103203.78;;;-3.73;81.31
72061;BME280;59925;52.136;5.420;2023-03-01T07:26:57;103212.03;;;-3.66;81.09
72061;BME280;59925;52.136;5.420;2023-03-01T07:29:23;103215.97;;;-3.60;81.46
72061;BME280;59925;52.136;5.420;2023-03-01T07:31:50;103211.22;;;-3.55;81.53
72061;BME280;59925;52.136;5.420;2023-03-01T07:34:16;103220.28;;;-3.48;81.56
72061;BME280;59925;52.136;5.420;2023-03-01T07:36:43;103213.50;;;-3.39;81.92
72061;BME280;59925;52.136;5.420;2023-03-01T07:39:11;103215.41;;;-3.30;81.94
72061;BME280;59925;52.136;5.420;2023-03-01T07:41:38;103220.69;;;-3.18;81.88
72061;BME280;59925;52.136;5.420;2023-03-01T07:44:05;103223.31;;;-3.07;82.23
72061;BME280;59925;52.136;5.420;2023-03-01T07:46:32;103222.22;;;-2.93;82.05
72061;BME280;59925;52.136;5.420;2023-03-01T07:48:59;103222.81;;;-2.78;82.53
72061;BME280;59925;52.136;5.420;2023-03-01T07:51:26;103225.41;;;-2.67;82.33
72061;BME280;59925;52.136;5.420;2023-03-01T07:53:52;103219.88;;;-2.41;82.62
72061;BME280;59925;52.136;5.420;2023-03-01T07:56:20;103216.56;;;-2.22;82.59
72061;BME280;59925;52.136;5.420;2023-03-01T07:58:48;103220.75;;;-2.19;82.22
72061;BME280;59925;52.136;5.420;2023-03-01T08:01:19;103219.41;;;-2.13;82.28
72061;BME280;59925;52.136;5.420;2023-03-01T08:03:46;103224.75;;;-2.04;81.65
72061;BME280;59925;52.136;5.420;2023-03-01T08:06:14;103230.09;;;-1.94;82.26
72061;BME280;59925;52.136;5.420;2023-03-01T08:08:41;103222.84;;;-1.80;82.07
72061;BME280;59925;52.136;5.420;2023-03-01T08:11:11;103234.84;;;-1.66;81.91
72061;BME280;59925;52.136;5.420;2023-03-01T08:13:38;103228.44;;;-1.52;82.03
72061;BME280;59925;52.136;5.420;2023-03-01T08:16:08;103221.03;;;-1.37;82.11
72061;BME280;59925;52.136;5.420;2023-03-01T08:18:36;103224.00;;;-1.21;81.91
72061;BME280;59925;52.136;5.420;2023-03-01T08:21:04;103219.06;;;-1.04;81.37
72061;BME280;59925;52.136;5.420;2023-03-01T08:23:31;103215.66;;;-0.85;80.94
72061;BME280;59925;52.136;5.420;2023-03-01T08:26:13;103211.44;;;-0.67;80.99
72061;BME280;59925;52.136;5.420;2023-03-01T08:28:41;103213.00;;;-0.44;80.58
72061;BME280;59925;52.136;5.420;2023-03-01T08:33:43;103211.78;;;-0.01;79.82
72061;BME280;59925;52.136;5.420;2023-03-01T08:36:10;103203.66;;;0.20;78.95
72061;BME280;59925;52.136;5.420;2023-03-01T08:38:36;103208.38;;;0.46;78.27
72061;BME280;59925;52.136;5.420;2023-03-01T08:41:03;103194.25;;;0.65;78.02
72061;BME280;59925;52.136;5.420;2023-03-01T08:43:30;103188.44;;;0.89;77.24
72061;BME280;59925;52.136;5.420;2023-03-01T08:45:57;103191.53;;;1.13;77.01
72061;BME280;59925;52.136;5.420;2023-03-01T08:48:24;103191.78;;;1.37;76.36
72061;BME280;59925;52.136;5.420;2023-03-01T08:50:51;103185.06;;;1.61;76.12
72061;BME280;59925;52.136;5.420;2023-03-01T08:53:17;103182.72;;;2.21;76.09
72061;BME280;59925;52.136;5.420;2023-03-01T08:55:44;103183.22;;;2.42;74.97
72061;BME280;59925;52.136;5.420;2023-03-01T08:58:10;103181.97;;;2.55;74.58
72061;BME280;59925;52.136;5.420;2023-03-01T09:00:37;103180.84;;;2.66;73.88
72061;BME280;59925;52.136;5.420;2023-03-01T09:03:04;103183.38;;;2.75;73.28
72061;BME280;59925;52.136;5.420;2023-03-01T09:05:32;103180.63;;;2.94;72.57
72061;BME280;59925;52.136;5.420;2023-03-01T09:07:59;103176.72;;;3.14;72.49
72061;BME280;59925;52.136;5.420;2023-03-01T09:10:25;103168.47;;;3.34;71.93
72061;BME280;59925;52.136;5.420;2023-03-01T09:12:52;103167.81;;;3.40;70.87
72061;BME280;59925;52.136;5.420;2023-03-01T09:15:18;103168.19;;;3.53;70.13
72061;BME280;59925;52.136;5.420;2023-03-01T09:17:45;103161.56;;;3.82;70.06
72061;BME280;59925;52.136;5.420;2023-03-01T09:20:11;103160.38;;;4.02;69.05
72061;BME280;59925;52.136;5.420;2023-03-01T09:22:38;103153.56;;;4.07;68.84
72061;BME280;59925;52.136;5.420;2023-03-01T09:25:05;103149.38;;;4.21;68.40
72061;BME280;59925;52.136;5.420;2023-03-01T09:27:32;103147.19;;;4.25;67.48
72061;BME280;59925;52.136;5.420;2023-03-01T09:29:58;103144.91;;;4.22;67.07
72061;BME280;59925;52.136;5.420;2023-03-01T09:32:25;103137.44;;;4.65;66.92
72061;BME280;59925;52.136;5.420;2023-03-01T09:34:52;103129.88;;;6.62;65.56
72061;BME280;59925;52.136;5.420;2023-03-01T09:37:33;103132.22;;;8.08;61.56
72061;BME280;59925;52.136;5.420;2023-03-01T09:40:00;103119.66;;;8.79;59.60
72061;BME280;59925;52.136;5.420;2023-03-01T09:42:28;103120.38;;;9.69;57.94
72061;BME280;59925;52.136;5.420;2023-03-01T09:45:06;103124.53;;;10.50;54.06
72061;BME280;59925;52.136;5.420;2023-03-01T09:47:38;103115.59;;;9.97;53.91
72061;BME280;59925;52.136;5.420;2023-03-01T09:50:16;103122.13;;;10.28;51.81
72061;BME280;59925;52.136;5.420;2023-03-01T09:52:46;103117.56;;;10.42;52.65
72061;BME280;59925;52.136;5.420;2023-03-01T09:55:20;103121.88;;;10.89;49.95
72061;BME280;59925;52.136;5.420;2023-03-01T09:57:52;103119.91;;;9.99;50.08
72061;BME280;59925;52.136;5.420;2023-03-01T10:00:36;103121.13;;;8.95;50.41
72061;BME280;59925;52.136;5.420;2023-03-01T10:03:28;103125.59;;;8.74;51.26
72061;BME280;59925;52.136;5.420;2023-03-01T10:06:10;103123.44;;;8.50;51.33
72061;BME280;59925;52.136;5.420;2023-03-01T10:09:02;103124.47;;;8.13;50.58
72061;BME280;59925;52.136;5.420;2023-03-01T10:11:36;103126.97;;;8.22;51.25
72061;BME280;59925;52.136;5.420;2023-03-01T10:14:09;103118.22;;;8.41;52.18
72061;BME280;59925;52.136;5.420;2023-03-01T10:16:52;103117.47;;;8.54;51.56
72061;BME280;59925;52.136;5.420;2023-03-01T10:19:25;103119.25;;;8.40;50.89
72061;BME280;59925;52.136;5.420;2023-03-01T10:21:57;103109.63;;;8.04;50.83
72061;BME280;59925;52.136;5.420;2023-03-01T10:24:35;103107.63;;;8.13;50.99
72061;BME280;59925;52.136;5.420;2023-03-01T10:27:12;103103.44;;;8.39;50.93
72061;BME280;59925;52.136;5.420;2023-03-01T10:32:15;103106.53;;;8.07;50.57
72061;BME280;59925;52.136;5.420;2023-03-01T10:34:43;103105.50;;;8.08;50.44
72061;BME280;59925;52.136;5.420;2023-03-01T10:37:11;103107.88;;;8.25;50.30
72061;BME280;59925;52.136;5.420;2023-03-01T10:40:04;103097.75;;;8.55;50.20
72061;BME280;59925;52.136;5.420;2023-03-01T10:42:48;103092.91;;;8.79;49.49
72061;BME280;59925;52.136;5.420;2023-03-01T10:45:36;103085.34;;;9.03;49.25
72061;BME280;59925;52.136;5.420;2023-03-01T10:48:36;103085.34;;;9.16;48.70
72061;BME280;59925;52.136;5.420;2023-03-01T10:53:35;103077.72;;;9.00;47.46
72061;BME280;59925;52.136;5.420;2023-03-01T10:56:12;103068.25;;;9.04;46.38
72061;BME280;59925;52.136;5.420;2023-03-01T10:59:00;103067.44;;;9.17;46.48
72061;BME280;59925;52.136;5.420;2023-03-01T11:01:34;103068.88;;;9.46;45.66
72061;BME280;59925;52.136;5.420;2023-03-01T11:06:36;103045.63;;;9.27;45.65
72061;BME280;59925;52.136;5.420;2023-03-01T11:09:33;103039.84;;;9.50;46.13
72061;BME280;59925;52.136;5.420;2023-03-01T11:12:08;103043.28;;;9.77;45.63
72061;BME280;59925;52.136;5.420;2023-03-01T11:14:46;103044.56;;;9.68;44.24
72061;BME280;59925;52.136;5.420;2023-03-01T11:17:24;103050.50;;;9.84;45.02
72061;BME280;59925;52.136;5.420;2023-03-01T11:22:46;103033.59;;;9.83;43.64
72061;BME280;59925;52.136;5.420;2023-03-01T11:25:14;103027.88;;;9.66;43.61
72061;BME280;59925;52.136;5.420;2023-03-01T11:27:43;103016.84;;;10.01;43.28
72061;BME280;59925;52.136;5.420;2023-03-01T11:30:21;103016.19;;;10.06;41.94
72061;BME280;59925;52.136;5.420;2023-03-01T11:35:37;103024.09;;;10.46;41.59
72061;BME280;59925;52.136;5.420;2023-03-01T11:41:06;103007.59;;;11.69;40.98
72061;BME280;59925;52.136;5.420;2023-03-01T11:43:42;103011.69;;;12.27;40.12
72061;BME280;59925;52.136;5.420;2023-03-01T11:49:10;103015.44;;;11.52;39.23
72061;BME280;59925;52.136;5.420;2023-03-01T12:00:44;103004.50;;;11.91;39.14
72061;BME280;59925;52.136;5.420;2023-03-01T12:03:55;102992.19;;;11.83;38.80
72061;BME280;59925;52.136;5.420;2023-03-01T12:09:21;103001.28;;;11.82;38.15
72061;BME280;59925;52.136;5.420;2023-03-01T12:12:06;102997.31;;;11.66;38.88
72061;BME280;59925;52.136;5.420;2023-03-01T12:20:20;102995.72;;;12.45;38.17
72061;BME280;59925;52.136;5.420;2023-03-01T12:26:00;102997.06;;;12.54;37.26
72061;BME280;59925;52.136;5.420;2023-03-01T12:28:39;102995.53;;;12.58;36.74
72061;BME280;59925;52.136;5.420;2023-03-01T12:34:05;102988.41;;;12.21;36.70
72061;BME280;59925;52.136;5.420;2023-03-01T12:50:20;102957.34;;;13.03;35.88
72061;BME280;59925;52.136;5.420;2023-03-01T12:52:57;102950.19;;;12.97;34.92
72061;BME280;59925;52.136;5.420;2023-03-01T12:55:38;102956.88;;;13.07;36.20
72061;BME280;59925;52.136;5.420;2023-03-01T12:58:32;102938.47;;;13.51;35.75
72061;BME280;59925;52.136;5.420;2023-03-01T13:06:44;102926.56;;;14.85;34.96
72061;BME280;59925;52.136;5.420;2023-03-01T13:09:41;102925.16;;;14.65;33.64
72061;BME280;59925;52.136;5.420;2023-03-01T13:12:46;102918.22;;;13.89;34.30
72061;BME280;59925;52.136;5.420;2023-03-01T13:17:51;102911.88;;;13.84;34.59
72061;BME280;59925;52.136;5.420;2023-03-01T13:23:12;102918.97;;;14.02;33.60
72061;BME280;59925;52.136;5.420;2023-03-01T13:31:06;102899.88;;;13.91;33.39
72061;BME280;59925;52.136;5.420;2023-03-01T13:33:48;102896.13;;;13.63;32.84
72061;BME280;59925;52.136;5.420;2023-03-01T13:44:37;102883.09;;;13.72;33.27
72061;BME280;59925;52.136;5.420;2023-03-01T13:49:45;102874.00;;;13.61;33.16
72061;BME280;59925;52.136;5.420;2023-03-01T13:55:01;102879.81;;;13.29;33.30
72061;BME280;59925;52.136;5.420;2023-03-01T13:58:03;102873.66;;;13.58;33.77
72061;BME280;59925;52.136;5.420;2023-03-01T14:00:38;102864.47;;;13.71;33.69
72061;BME280;59925;52.136;5.420;2023-03-01T14:03:11;102849.06;;;13.54;33.75
72061;BME280;59925;52.136;5.420;2023-03-01T14:05:42;102848.94;;;13.61;33.26
72061;BME280;59925;52.136;5.420;2023-03-01T14:08:24;102846.03;;;13.39;33.34
72061;BME280;59925;52.136;5.420;2023-03-01T14:13:43;102831.53;;;13.40;33.04
72061;BME280;59925;52.136;5.420;2023-03-01T14:19:21;102829.59;;;13.23;33.21
72061;BME280;59925;52.136;5.420;2023-03-01T14:22:32;102824.59;;;13.03;32.79
72061;BME280;59925;52.136;5.420;2023-03-01T14:25:02;102820.34;;;13.60;33.41
72061;BME280;59925;52.136;5.420;2023-03-01T14:27:37;102820.69;;;14.27;33.00
72061;BME280;59925;52.136;5.420;2023-03-01T14:30:13;102811.44;;;14.79;32.31
72061;BME280;59925;52.136;5.420;2023-03-01T14:32:40;102809.41;;;15.08;32.33
72061;BME280;59925;52.136;5.420;2023-03-01T14:35:20;102800.06;;;15.43;31.74
72061;BME280;59925;52.136;5.420;2023-03-01T14:37:48;102807.75;;;15.84;30.62
72061;BME280;59925;52.136;5.420;2023-03-01T14:42:49;102786.06;;;15.46;30.06
72061;BME280;59925;52.136;5.420;2023-03-01T14:45:17;102795.91;;;15.08;30.44
72061;BME280;59925;52.136;5.420;2023-03-01T14:47:44;102794.69;;;14.60;30.88
72061;BME280;59925;52.136;5.420;2023-03-01T14:50:24;102794.25;;;14.12;31.03
72061;BME280;59925;52.136;5.420;2023-03-01T14:52:55;102792.94;;;13.80;31.52
72061;BME280;59925;52.136;5.420;2023-03-01T14:55:32;102790.06;;;13.70;32.28
72061;BME280;59925;52.136;5.420;2023-03-01T14:58:03;102795.72;;;13.68;32.22
72061;BME280;59925;52.136;5.420;2023-03-01T15:00:31;102798.50;;;13.90;32.94
72061;BME280;59925;52.136;5.420;2023-03-01T15:03:14;102795.53;;;14.43;31.79
72061;BME280;59925;52.136;5.420;2023-03-01T15:05:44;102791.09;;;14.71;31.46